createdAt,value
2018-03-24T00:01:54.857Z,17.43
2018-03-24T00:04:21.780Z,19.10
2018-03-24T00:06:48.698Z,19.77
2018-03-24T00:09:15.553Z,17.37
2018-03-24T00:11:42.426Z,18.57
2018-03-24T00:14:09.378Z,18.30
2018-03-24T00:16:36.249Z,19.60
2018-03-24T00:19:03.126Z,20.70
2018-03-24T00:21:29.988Z,19.10
2018-03-24T00:23:56.843Z,19.53
2018-03-24T00:26:24.681Z,19.23
2018-03-24T00:28:51.641Z,22.33
2018-03-24T00:31:18.508Z,19.63
2018-03-24T00:33:45.468Z,23.20
2018-03-24T00:36:12.421Z,19.63
2018-03-24T00:38:39.377Z,17.50
2018-03-24T00:41:06.241Z,20.40
2018-03-24T00:43:33.093Z,22.13
2018-03-24T00:45:59.953Z,19.03
2018-03-24T00:48:26.800Z,17.80
2018-03-24T00:50:53.679Z,20.67
2018-03-24T00:53:20.524Z,19.00
2018-03-24T00:55:47.397Z,18.27
2018-03-24T00:58:14.253Z,20.77
2018-03-24T01:00:41.204Z,23.53
2018-03-24T01:03:08.146Z,24.70
2018-03-24T01:05:35.006Z,20.80
2018-03-24T01:08:01.870Z,23.33
2018-03-24T01:10:28.831Z,24.20
2018-03-24T01:12:55.704Z,22.37
2018-03-24T01:15:22.630Z,22.47
2018-03-24T01:17:49.506Z,25.40
2018-03-24T01:20:16.353Z,22.57
2018-03-24T01:22:43.305Z,27.50
2018-03-24T01:25:10.269Z,28.00
2018-03-24T01:27:37.148Z,25.27
2018-03-24T01:30:04.030Z,22.73
2018-03-24T01:32:30.878Z,24.97
2018-03-24T01:34:57.804Z,22.43
2018-03-24T01:37:24.807Z,24.03
2018-03-24T01:39:51.617Z,25.23
2018-03-24T01:42:18.490Z,26.63
2018-03-24T01:44:45.437Z,28.17
2018-03-24T01:47:12.284Z,26.47
2018-03-24T01:49:39.157Z,30.07
2018-03-24T01:52:06.116Z,26.20
2018-03-24T01:54:32.966Z,26.07
2018-03-24T01:56:59.923Z,26.80
2018-03-24T01:59:26.868Z,29.93
2018-03-24T02:01:53.721Z,28.13
2018-03-24T02:04:20.691Z,25.40
2018-03-24T02:06:47.550Z,31.67
2018-03-24T02:09:14.406Z,26.60
2018-03-24T02:11:41.285Z,27.27
2018-03-24T02:14:08.225Z,24.23
2018-03-24T02:16:35.106Z,29.27
2018-03-24T02:19:01.989Z,28.67
2018-03-24T02:21:28.917Z,24.03
2018-03-24T02:23:55.768Z,29.80
2018-03-24T02:26:22.711Z,33.00
2018-03-24T02:28:49.562Z,30.07
2018-03-24T02:31:16.457Z,31.97
2018-03-24T02:33:43.380Z,30.37
2018-03-24T02:36:10.226Z,27.60
2018-03-24T02:38:37.077Z,31.07
2018-03-24T02:41:04.055Z,29.87
2018-03-24T02:43:30.911Z,28.23
2018-03-24T02:45:57.769Z,33.10
2018-03-24T02:48:24.646Z,30.70
2018-03-24T02:50:51.545Z,33.87
2018-03-24T02:53:18.863Z,33.83
2018-03-24T02:55:45.809Z,32.80
2018-03-24T02:58:12.687Z,31.03
2018-03-24T03:00:39.626Z,37.73
2018-03-24T03:03:06.538Z,33.77
2018-03-24T03:05:33.856Z,32.43
2018-03-24T03:08:00.734Z,34.60
2018-03-24T03:10:27.661Z,31.90
2018-03-24T03:12:54.516Z,35.23
2018-03-24T03:15:21.378Z,30.90
2018-03-24T03:17:48.269Z,34.37
2018-03-24T03:20:15.123Z,31.80
2018-03-24T03:22:41.983Z,30.37
2018-03-24T03:25:08.859Z,31.70
2018-03-24T03:27:35.773Z,29.07
2018-03-24T03:30:02.627Z,33.53
2018-03-24T03:32:29.518Z,32.40
2018-03-24T03:34:56.454Z,30.93
2018-03-24T03:37:23.306Z,30.00
2018-03-24T03:39:50.153Z,35.93
2018-03-24T03:42:17.115Z,36.77
2018-03-24T03:44:44.013Z,29.87
2018-03-24T03:47:10.921Z,29.67
2018-03-24T03:49:37.889Z,28.43
2018-03-24T03:52:04.741Z,30.60
2018-03-24T03:54:31.651Z,29.67
2018-03-24T03:56:58.686Z,28.97
2018-03-24T03:59:25.627Z,29.37
2018-03-24T04:01:52.473Z,28.27
2018-03-24T04:04:19.361Z,31.13
2018-03-24T04:06:46.300Z,32.37
2018-03-24T04:09:13.249Z,26.30
2018-03-24T04:11:40.097Z,28.57
2018-03-24T04:14:06.969Z,31.50
2018-03-24T04:16:33.841Z,34.03
2018-03-24T04:19:00.790Z,33.00
2018-03-24T04:21:28.460Z,33.63
2018-03-24T04:23:55.337Z,34.37
2018-03-24T04:26:22.268Z,30.40
2018-03-24T04:28:49.206Z,39.23
2018-03-24T04:31:16.192Z,36.80
2018-03-24T04:33:43.153Z,38.27
2018-03-24T04:36:10.093Z,35.80
2018-03-24T04:38:37.361Z,36.70
2018-03-24T04:41:04.213Z,40.80
2018-03-24T04:43:31.089Z,35.43
2018-03-24T04:45:57.995Z,37.87
2018-03-24T04:48:24.917Z,35.80
2018-03-24T04:50:51.761Z,37.40
2018-03-24T04:53:18.637Z,37.87
2018-03-24T04:55:45.500Z,36.30
2018-03-24T04:58:12.526Z,36.10
2018-03-24T05:00:39.492Z,39.43
2018-03-24T05:03:06.347Z,38.87
2018-03-24T05:05:33.207Z,39.97
2018-03-24T05:08:00.178Z,34.20
2018-03-24T05:10:27.043Z,37.67
2018-03-24T05:12:53.907Z,37.90
2018-03-24T05:15:20.802Z,37.87
2018-03-24T05:17:48.042Z,32.63
2018-03-24T05:20:14.930Z,36.53
2018-03-24T05:22:42.193Z,32.70
2018-03-24T05:25:09.511Z,30.17
2018-03-24T05:27:36.407Z,35.80
2018-03-24T05:30:03.312Z,35.60
2018-03-24T05:32:30.116Z,36.33
2018-03-24T05:34:57.036Z,33.63
2018-03-24T05:37:23.886Z,32.40
2018-03-24T05:39:50.847Z,31.23
2018-03-24T05:42:17.739Z,29.77
2018-03-24T05:44:44.675Z,30.63
2018-03-24T05:47:11.521Z,34.50
2018-03-24T05:49:38.408Z,36.00
2018-03-24T05:52:05.284Z,35.13
2018-03-24T05:54:32.139Z,37.60
2018-03-24T05:56:59.145Z,30.80
2018-03-24T05:59:25.999Z,31.63
2018-03-24T06:01:52.853Z,34.57
2018-03-24T06:04:19.818Z,33.13
2018-03-24T06:06:46.765Z,33.13
2018-03-24T06:09:13.610Z,34.87
2018-03-24T06:11:40.508Z,35.90
2018-03-24T06:14:07.353Z,34.33
2018-03-24T06:16:34.314Z,33.03
2018-03-24T06:19:01.184Z,41.50
2018-03-24T06:21:28.049Z,39.13
2018-03-24T06:23:54.925Z,39.37
2018-03-24T06:26:21.785Z,35.10
2018-03-24T06:28:48.636Z,38.60
2018-03-24T06:31:15.565Z,40.57
2018-03-24T06:33:42.550Z,37.70
2018-03-24T06:36:09.397Z,35.80
2018-03-24T06:38:36.330Z,36.97
2018-03-24T06:41:03.287Z,38.87
2018-03-24T06:43:30.203Z,33.73
2018-03-24T06:45:57.067Z,35.67
2018-03-24T06:48:24.322Z,36.60
2018-03-24T06:50:51.577Z,36.00
2018-03-24T06:53:18.509Z,37.13
2018-03-24T06:55:45.452Z,33.77
2018-03-24T06:58:12.336Z,33.53
2018-03-24T07:00:39.260Z,31.90
2018-03-24T07:03:06.550Z,36.53
2018-03-24T07:05:33.493Z,31.90
2018-03-24T07:08:00.394Z,35.00
2018-03-24T07:10:27.327Z,37.50
2018-03-24T07:12:54.178Z,35.10
2018-03-24T07:15:21.069Z,33.47
2018-03-24T07:17:48.343Z,31.20
2018-03-24T07:20:15.676Z,29.80
2018-03-24T07:22:42.642Z,34.20
2018-03-24T07:25:09.482Z,30.07
2018-03-24T07:27:36.341Z,31.63
2018-03-24T07:30:03.229Z,32.40
2018-03-24T07:32:30.160Z,29.90
2018-03-24T07:34:57.004Z,30.30
2018-03-24T07:37:23.893Z,33.50
2018-03-24T07:39:50.744Z,32.20
2018-03-24T07:42:17.694Z,29.53
2018-03-24T07:44:44.566Z,33.43
2018-03-24T07:47:11.434Z,28.97
2018-03-24T07:49:38.333Z,28.47
2018-03-24T07:52:05.182Z,29.50
2018-03-24T07:54:32.061Z,30.20
2018-03-24T07:56:58.912Z,29.67
2018-03-24T07:59:25.840Z,27.43
2018-03-24T08:01:52.753Z,31.27
2018-03-24T08:04:19.636Z,32.37
2018-03-24T08:06:46.496Z,29.37
2018-03-24T08:09:13.382Z,28.33
2018-03-24T08:11:40.642Z,26.80
2018-03-24T08:14:07.965Z,30.47
2018-03-24T08:16:34.840Z,29.90
2018-03-24T08:19:01.707Z,30.73
2018-03-24T08:21:28.587Z,32.50
2018-03-24T08:23:55.872Z,33.23
2018-03-24T08:26:22.751Z,32.37
2018-03-24T08:28:49.618Z,31.83
2018-03-24T08:31:16.568Z,34.63
2018-03-24T08:33:43.526Z,33.13
2018-03-24T08:36:10.509Z,33.93
2018-03-24T08:38:37.376Z,32.00
2018-03-24T08:41:04.252Z,31.30
2018-03-24T08:43:31.597Z,32.53
2018-03-24T08:45:58.480Z,30.67
2018-03-24T08:48:25.794Z,28.90
2018-03-24T08:50:52.767Z,29.60
2018-03-24T08:53:19.754Z,30.90
2018-03-24T08:55:46.677Z,29.60
2018-03-24T08:58:13.555Z,31.27
2018-03-24T09:00:40.490Z,28.73
2018-03-24T09:03:07.353Z,32.07
2018-03-24T09:05:34.308Z,28.07
2018-03-24T09:08:01.181Z,27.83
2018-03-24T09:10:28.121Z,28.10
2018-03-24T09:12:54.985Z,29.73
2018-03-24T09:15:21.857Z,29.80
2018-03-24T09:17:48.890Z,27.17
2018-03-24T09:20:15.765Z,25.33
2018-03-24T09:22:42.619Z,26.17
2018-03-24T09:25:09.570Z,26.93
2018-03-24T09:27:36.485Z,21.43
2018-03-24T09:30:03.906Z,24.60
2018-03-24T09:32:30.756Z,23.13
2018-03-24T09:34:57.736Z,24.20
2018-03-24T09:37:24.662Z,22.00
2018-03-24T09:39:51.538Z,23.40
2018-03-24T09:42:18.494Z,22.00
2018-03-24T09:44:45.385Z,20.47
2018-03-24T09:47:12.311Z,19.50
2018-03-24T09:49:39.268Z,20.23
2018-03-24T09:52:06.225Z,26.30
2018-03-24T09:54:33.094Z,19.73
2018-03-24T09:56:59.960Z,22.20
2018-03-24T09:59:26.893Z,22.33
2018-03-24T10:01:53.797Z,20.50
2018-03-24T10:04:20.708Z,20.50
2018-03-24T10:06:47.594Z,20.43
2018-03-24T10:09:14.498Z,19.03
2018-03-24T10:11:41.805Z,20.77
2018-03-24T10:14:08.666Z,19.40
2018-03-24T10:16:35.533Z,18.80
2018-03-24T10:19:02.475Z,20.90
2018-03-24T10:21:41.217Z,19.13
2018-03-24T10:27:00.894Z,17.10
2018-03-24T10:29:28.209Z,17.83
2018-03-24T10:31:55.148Z,16.20
2018-03-24T10:34:22.038Z,17.30
2018-03-24T10:36:49.136Z,14.80
2018-03-24T10:39:16.393Z,16.17
2018-03-24T10:41:43.303Z,14.60
2018-03-24T10:44:10.264Z,13.83
2018-03-24T10:46:37.132Z,16.87
2018-03-24T10:49:04.064Z,13.50
2018-03-24T10:51:31.325Z,14.73
2018-03-24T10:53:58.205Z,14.40
2018-03-24T10:56:25.058Z,14.47
2018-03-24T10:58:52.001Z,16.33
2018-03-24T11:01:18.885Z,14.20
2018-03-24T11:03:45.734Z,15.33
2018-03-24T11:06:12.597Z,16.43
2018-03-24T11:08:39.563Z,15.00
2018-03-24T11:11:06.587Z,15.00
2018-03-24T11:13:33.876Z,14.50
2018-03-24T11:16:00.909Z,15.40
2018-03-24T11:18:28.153Z,15.87
2018-03-24T11:20:55.058Z,14.63
2018-03-24T11:23:21.931Z,12.93
2018-03-24T11:25:48.877Z,15.70
2018-03-24T11:28:15.793Z,14.00
2018-03-24T11:30:43.040Z,14.70
2018-03-24T11:33:09.969Z,13.50
2018-03-24T11:35:36.921Z,10.63
2018-03-24T11:38:03.786Z,12.53
2018-03-24T11:40:30.744Z,14.07
2018-03-24T11:42:57.605Z,14.43
2018-03-24T11:45:24.468Z,12.90
2018-03-24T11:47:51.435Z,13.17
2018-03-24T11:50:18.274Z,11.40
2018-03-24T11:52:45.160Z,11.93
2018-03-24T11:55:12.052Z,10.13
2018-03-24T11:57:40.017Z,9.37
2018-03-24T12:00:06.857Z,10.40
2018-03-24T12:02:33.725Z,10.13
2018-03-24T12:05:00.637Z,9.80
2018-03-24T12:07:27.592Z,11.00
2018-03-24T12:09:54.541Z,12.00
2018-03-24T12:12:21.425Z,10.87
2018-03-24T12:14:48.277Z,12.70
2018-03-24T12:17:15.145Z,14.10
2018-03-24T12:19:42.050Z,12.20
2018-03-24T12:22:09.373Z,15.97
2018-03-24T12:24:36.238Z,12.63
2018-03-24T12:27:03.114Z,11.40
2018-03-24T12:29:30.408Z,13.97
2018-03-24T12:31:57.293Z,13.17
2018-03-24T12:34:24.175Z,11.47
2018-03-24T12:36:51.036Z,10.43
2018-03-24T12:39:17.944Z,10.77
2018-03-24T12:41:44.803Z,11.10
2018-03-24T12:44:12.342Z,11.80
2018-03-24T12:46:39.385Z,10.43
2018-03-24T12:49:06.274Z,9.93
2018-03-24T12:51:33.145Z,10.90
2018-03-24T12:54:00.434Z,11.27
2018-03-24T12:56:27.317Z,12.77
2018-03-24T12:58:54.285Z,12.77
2018-03-24T13:01:21.261Z,13.03
2018-03-24T13:03:48.130Z,12.33
2018-03-24T13:06:14.995Z,12.47
2018-03-24T13:08:42.266Z,12.00
2018-03-24T13:11:09.526Z,10.60
2018-03-24T13:13:36.551Z,11.50
2018-03-24T13:16:03.412Z,13.47
2018-03-24T13:18:30.366Z,12.93
2018-03-24T13:20:57.250Z,12.87
2018-03-24T13:23:24.159Z,11.03
2018-03-24T13:25:51.038Z,11.63
2018-03-24T13:28:17.895Z,11.03
2018-03-24T13:30:44.945Z,12.10
2018-03-24T13:33:11.808Z,11.73
2018-03-24T13:35:38.697Z,11.40
2018-03-24T13:38:05.607Z,10.30
2018-03-24T13:40:32.469Z,10.90
2018-03-24T13:42:59.365Z,10.20
2018-03-24T13:45:26.230Z,10.00
2018-03-24T13:47:53.154Z,9.63
2018-03-24T13:50:20.050Z,10.90
2018-03-24T13:52:46.918Z,9.67
2018-03-24T13:55:14.220Z,10.10
2018-03-24T13:57:41.073Z,9.57
2018-03-24T14:00:08.060Z,10.67
2018-03-24T14:02:34.933Z,10.40
2018-03-24T14:05:01.877Z,11.60
2018-03-24T14:07:28.762Z,12.10
2018-03-24T14:09:55.643Z,12.43
2018-03-24T14:12:22.903Z,12.17
2018-03-24T14:14:50.209Z,10.80
2018-03-24T14:17:17.072Z,10.70
2018-03-24T14:19:43.960Z,10.83
2018-03-24T14:22:10.820Z,11.97
2018-03-24T14:24:37.763Z,11.83
2018-03-24T14:27:04.702Z,11.80
2018-03-24T14:29:31.596Z,12.30
2018-03-24T14:31:58.515Z,11.97
2018-03-24T14:34:25.456Z,12.13
2018-03-24T14:36:52.334Z,10.77
2018-03-24T14:39:19.289Z,10.30
2018-03-24T14:41:46.187Z,9.53
2018-03-24T14:44:13.041Z,10.03
2018-03-24T14:46:39.934Z,9.83
2018-03-24T14:49:07.258Z,8.90
2018-03-24T14:51:34.142Z,9.53
2018-03-24T14:54:01.410Z,9.10
2018-03-24T14:56:28.690Z,8.97
2018-03-24T14:58:55.577Z,9.07
2018-03-24T15:01:22.541Z,9.20
2018-03-24T15:03:49.421Z,9.57
2018-03-24T15:06:16.266Z,8.70
2018-03-24T15:08:43.208Z,9.97
2018-03-24T15:11:10.160Z,9.60
2018-03-24T15:13:37.053Z,9.20
2018-03-24T15:16:03.924Z,9.20
2018-03-24T15:18:30.854Z,8.20
2018-03-24T15:20:57.785Z,8.03
2018-03-24T15:23:24.667Z,10.83
2018-03-24T15:25:51.633Z,9.27
2018-03-24T15:28:18.506Z,9.23
2018-03-24T15:30:57.390Z,9.87
2018-03-24T15:33:36.374Z,10.40
2018-03-24T15:36:15.187Z,9.60
2018-03-24T15:38:42.069Z,8.80
2018-03-24T15:41:08.992Z,9.70
2018-03-24T15:43:36.274Z,9.50
2018-03-24T15:46:03.205Z,9.10
2018-03-24T15:48:30.470Z,9.93
2018-03-24T15:50:57.368Z,9.30
2018-03-24T15:53:24.219Z,9.67
2018-03-24T15:55:51.089Z,10.10
2018-03-24T15:58:17.929Z,9.80
2018-03-24T16:00:44.873Z,10.07
2018-03-24T16:03:12.166Z,10.53
2018-03-24T16:05:39.121Z,9.47
2018-03-24T16:08:06.096Z,10.30
2018-03-24T16:10:33.041Z,9.73
2018-03-24T16:12:59.989Z,10.40
2018-03-24T16:15:26.838Z,9.90
2018-03-24T16:17:53.741Z,8.63
2018-03-24T16:20:20.665Z,9.07
2018-03-24T16:22:47.549Z,9.60
2018-03-24T16:25:14.407Z,9.30
2018-03-24T16:27:41.285Z,9.23
2018-03-24T16:30:08.193Z,10.10
2018-03-24T16:32:35.078Z,9.50
2018-03-24T16:35:01.942Z,9.30
2018-03-24T16:37:28.823Z,9.37
2018-03-24T16:39:56.078Z,10.03
2018-03-24T16:42:23.353Z,9.63
2018-03-24T16:44:50.603Z,10.47
2018-03-24T16:47:17.473Z,9.13
2018-03-24T16:49:45.112Z,9.50
2018-03-24T16:52:11.995Z,10.33
2018-03-24T16:54:38.870Z,9.53
2018-03-24T16:57:06.136Z,9.67
2018-03-24T16:59:33.396Z,9.80
2018-03-24T17:02:00.652Z,8.60
2018-03-24T17:04:27.546Z,10.00
2018-03-24T17:06:54.508Z,11.10
2018-03-24T17:09:21.381Z,11.00
2018-03-24T17:11:48.649Z,10.77
2018-03-24T17:14:15.790Z,11.53
2018-03-24T17:16:43.045Z,10.30
2018-03-24T17:19:10.345Z,12.53
2018-03-24T17:21:37.322Z,11.20
2018-03-24T17:24:04.221Z,11.77
2018-03-24T17:26:31.533Z,11.73
2018-03-24T17:28:58.406Z,10.80
2018-03-24T17:31:25.358Z,11.33
2018-03-24T17:33:52.296Z,10.37
2018-03-24T17:36:19.249Z,11.40
2018-03-24T17:38:46.268Z,11.30
2018-03-24T17:41:13.087Z,10.63
2018-03-24T17:43:40.034Z,11.10
2018-03-24T17:46:06.902Z,11.23
2018-03-24T17:48:33.987Z,11.00
2018-03-24T17:51:01.342Z,11.07
2018-03-24T17:53:28.227Z,12.70
2018-03-24T17:55:55.084Z,12.73
2018-03-24T17:58:21.999Z,10.70
2018-03-24T18:00:48.869Z,11.67
2018-03-24T18:03:15.717Z,14.60
2018-03-24T18:05:42.593Z,12.03
2018-03-24T18:08:09.614Z,12.43
2018-03-24T18:10:36.923Z,13.33
2018-03-24T18:13:03.812Z,11.83
2018-03-24T18:15:31.138Z,10.97
2018-03-24T18:17:58.032Z,12.90
2018-03-24T18:20:24.942Z,12.60
2018-03-24T18:22:51.820Z,12.60
2018-03-24T18:25:18.672Z,13.00
2018-03-24T18:27:45.605Z,11.60
2018-03-24T18:30:12.488Z,10.93
2018-03-24T18:32:39.450Z,11.13
2018-03-24T18:35:06.369Z,12.23
2018-03-24T18:37:33.234Z,11.17
2018-03-24T18:40:00.101Z,13.27
2018-03-24T18:42:27.009Z,14.73
2018-03-24T18:44:54.277Z,14.73
2018-03-24T18:47:21.545Z,12.73
2018-03-24T18:49:48.806Z,11.90
2018-03-24T18:52:16.128Z,13.90
2018-03-24T18:54:43.005Z,13.73
2018-03-24T18:57:09.942Z,13.87
2018-03-24T18:59:36.799Z,13.73
2018-03-24T19:02:03.656Z,15.67
2018-03-24T19:04:30.497Z,12.93
2018-03-24T19:06:57.476Z,13.73
2018-03-24T19:09:24.530Z,13.10
2018-03-24T19:11:51.376Z,13.07
2018-03-24T19:14:18.261Z,12.13
2018-03-24T19:16:45.215Z,12.20
2018-03-24T19:19:12.152Z,13.67
2018-03-24T19:21:39.022Z,15.13
2018-03-24T19:24:05.873Z,12.93
2018-03-24T19:26:32.816Z,12.93
2018-03-24T19:29:00.039Z,11.93
2018-03-24T19:31:26.956Z,14.37
2018-03-24T19:33:53.809Z,13.27
2018-03-24T19:36:20.701Z,13.87
2018-03-24T19:38:47.634Z,15.00
2018-03-24T19:41:14.484Z,16.03
2018-03-24T19:43:41.350Z,16.00
2018-03-24T19:46:08.314Z,18.70
2018-03-24T19:48:35.262Z,15.90
2018-03-24T19:51:02.248Z,15.47
2018-03-24T19:53:29.110Z,14.37
2018-03-24T19:55:56.038Z,13.60
2018-03-24T19:58:22.989Z,16.57
2018-03-24T20:00:49.945Z,13.23
2018-03-24T20:03:16.924Z,15.00
2018-03-24T20:05:43.810Z,13.67
2018-03-24T20:08:10.677Z,13.73
2018-03-24T20:10:37.947Z,12.40
2018-03-24T20:13:05.201Z,12.17
2018-03-24T20:15:32.120Z,13.07
2018-03-24T20:17:58.971Z,13.43
2018-03-24T20:20:26.235Z,13.50
2018-03-24T20:22:53.097Z,12.80
2018-03-24T20:25:19.974Z,13.00
2018-03-24T20:27:46.931Z,12.93
2018-03-24T20:30:13.799Z,11.13
2018-03-24T20:32:40.672Z,11.67
2018-03-24T20:35:07.638Z,11.00
2018-03-24T20:37:34.480Z,13.20
2018-03-24T20:40:01.405Z,10.93
2018-03-24T20:42:28.366Z,11.30
2018-03-24T20:44:55.318Z,11.33
2018-03-24T20:47:22.281Z,11.43
2018-03-24T20:49:49.171Z,13.87
2018-03-24T20:52:16.057Z,9.90
2018-03-24T20:54:43.324Z,11.50
2018-03-24T20:57:10.574Z,11.50
2018-03-24T20:59:37.896Z,11.60
2018-03-24T21:02:04.821Z,11.10
2018-03-24T21:04:32.104Z,13.33
2018-03-24T21:06:58.973Z,12.33
2018-03-24T21:09:25.937Z,11.33
2018-03-24T21:11:52.789Z,12.10
2018-03-24T21:14:19.787Z,11.03
2018-03-24T21:16:46.668Z,12.43
2018-03-24T21:19:14.015Z,11.70
2018-03-24T21:21:40.933Z,10.67
2018-03-24T21:24:07.805Z,12.30
2018-03-24T21:26:34.745Z,12.33
2018-03-24T21:29:01.594Z,11.17
2018-03-24T21:31:28.465Z,11.93
2018-03-24T21:33:55.325Z,16.70
2018-03-24T21:36:22.282Z,11.40
2018-03-24T21:38:49.175Z,11.93
2018-03-24T21:41:16.152Z,11.10
2018-03-24T21:43:43.017Z,12.17
2018-03-24T21:46:10.268Z,10.70
2018-03-24T21:48:37.144Z,11.27
2018-03-24T21:51:04.450Z,14.00
2018-03-24T21:53:31.345Z,10.80
2018-03-24T21:55:58.261Z,12.80
2018-03-24T21:58:25.213Z,12.93
2018-03-24T22:00:52.177Z,13.07
2018-03-24T22:03:19.153Z,12.23
2018-03-24T22:05:46.017Z,12.37
2018-03-24T22:08:13.076Z,12.87
2018-03-24T22:10:40.384Z,12.60
2018-03-24T22:13:07.647Z,10.83
2018-03-24T22:15:34.517Z,12.67
2018-03-24T22:18:01.397Z,13.47
2018-03-24T22:20:28.260Z,14.50
2018-03-24T22:22:55.166Z,12.60
2018-03-24T22:25:22.088Z,11.67
2018-03-24T22:27:49.016Z,11.97
2018-03-24T22:30:16.381Z,11.60
2018-03-24T22:32:43.248Z,13.80
2018-03-24T22:35:10.133Z,11.70
2018-03-24T22:37:37.059Z,13.13
2018-03-24T22:40:04.308Z,11.73
2018-03-24T22:42:31.648Z,12.13
2018-03-24T22:44:58.561Z,10.70
2018-03-24T22:47:25.417Z,18.03
2018-03-24T22:49:52.278Z,14.43
2018-03-24T22:52:19.202Z,11.50
2018-03-24T22:54:46.522Z,11.73
2018-03-24T22:57:13.498Z,12.17
2018-03-24T22:59:40.433Z,12.07
2018-03-24T23:02:07.388Z,12.10
2018-03-24T23:04:34.235Z,13.20
2018-03-24T23:07:01.113Z,12.63
2018-03-24T23:09:27.998Z,11.70
2018-03-24T23:11:54.849Z,11.20
2018-03-24T23:14:21.778Z,11.90
2018-03-24T23:16:48.704Z,13.00
2018-03-24T23:19:15.749Z,11.80
2018-03-24T23:21:43.166Z,13.20
2018-03-24T23:24:10.105Z,11.83
2018-03-24T23:26:37.117Z,12.13
2018-03-24T23:29:04.074Z,11.57
2018-03-24T23:31:30.933Z,12.20
2018-03-24T23:33:57.816Z,12.20
2018-03-24T23:36:24.802Z,11.40
2018-03-24T23:38:51.664Z,11.13
2018-03-24T23:41:18.553Z,13.07
2018-03-24T23:43:45.476Z,15.50
2018-03-24T23:46:12.357Z,11.47
2018-03-24T23:48:39.245Z,11.57
2018-03-24T23:51:06.509Z,11.83
2018-03-24T23:53:33.420Z,10.63
2018-03-24T23:56:00.316Z,11.73
2018-03-24T23:58:27.233Z,11.03
